Terminal Aerodrome Forecast
Issued by NWS

Home | Current Version | Previous Version | Text Only | Print | Product List | Glossary On
Versions: 1 2 3 4 5 6 7 8 9 10 11 12 13 14 15
000
FTUS46 KMTR 210500
TAFMRY
TAF
KMRY 210520Z 2106/2206 29005KT P6SM FEW020 BKN080
     FM210900 21003KT P6SM -RA BKN025 OVC030
     FM211200 VRB03KT P6SM VCSH OVC010
     FM211800 29004KT P6SM SCT012 BKN020
     FM220300 VRB03KT P6SM SCT010 BKN020=

USA.gov is the U.S. government's official web portal to all federal, state and local government web resources and services.